sensor_id;sensor_type;location;lat;lon;timestamp;P1;P2;P0
62547;PMS7003;48602;45.192;5.722;2023-01-16T00:01:59;50.33;41.67;28.00
62547;PMS7003;48602;45.192;5.722;2023-01-16T00:04:25;49.00;42.00;30.33
62547;PMS7003;48602;45.192;5.722;2023-01-16T00:07:01;45.67;40.67;29.00
62547;PMS7003;48602;45.192;5.722;2023-01-16T00:09:27;53.00;40.67;28.67
62547;PMS7003;48602;45.192;5.722;2023-01-16T00:11:52;41.00;36.00;26.33
62547;PMS7003;48602;45.192;5.722;2023-01-16T00:14:18;39.33;37.33;25.67
62547;PMS7003;48602;45.192;5.722;2023-01-16T00:16:43;47.33;38.67;28.00
62547;PMS7003;48602;45.192;5.722;2023-01-16T00:19:09;44.00;38.33;28.00
62547;PMS7003;48602;45.192;5.722;2023-01-16T00:21:36;46.67;40.00;29.00
62547;PMS7003;48602;45.192;5.722;2023-01-16T00:24:02;43.67;37.00;28.33
62547;PMS7003;48602;45.192;5.722;2023-01-16T00:26:29;46.33;40.33;28.67
62547;PMS7003;48602;45.192;5.722;2023-01-16T00:28:55;45.67;42.00;29.00
62547;PMS7003;48602;45.192;5.722;2023-01-16T00:31:20;43.33;38.67;28.00
62547;PMS7003;48602;45.192;5.722;2023-01-16T00:33:48;52.33;41.33;28.33
62547;PMS7003;48602;45.192;5.722;2023-01-16T00:36:13;54.67;42.67;29.00
62547;PMS7003;48602;45.192;5.722;2023-01-16T00:38:39;57.67;42.00;28.67
62547;PMS7003;48602;45.192;5.722;2023-01-16T00:41:05;58.00;46.33;30.33
62547;PMS7003;48602;45.192;5.722;2023-01-16T00:43:31;50.33;42.33;29.00
62547;PMS7003;48602;45.192;5.722;2023-01-16T00:45:57;49.67;42.00;29.00
62547;PMS7003;48602;45.192;5.722;2023-01-16T00:48:22;50.00;41.33;28.00
62547;PMS7003;48602;45.192;5.722;2023-01-16T00:50:48;55.67;43.00;30.00
62547;PMS7003;48602;45.192;5.722;2023-01-16T00:53:14;50.00;40.67;29.00
62547;PMS7003;48602;45.192;5.722;2023-01-16T00:55:40;47.00;40.33;30.00
62547;PMS7003;48602;45.192;5.722;2023-01-16T00:58:07;44.67;37.33;25.33
62547;PMS7003;48602;45.192;5.722;2023-01-16T01:00:33;44.67;38.00;28.33
62547;PMS7003;48602;45.192;5.722;2023-01-16T01:02:59;41.33;35.00;25.67
62547;PMS7003;48602;45.192;5.722;2023-01-16T01:05:25;60.33;41.33;29.67
62547;PMS7003;48602;45.192;5.722;2023-01-16T01:07:50;54.33;43.00;28.67
62547;PMS7003;48602;45.192;5.722;2023-01-16T01:10:16;57.00;44.33;29.67
62547;PMS7003;48602;45.192;5.722;2023-01-16T01:12:41;51.33;42.00;29.67
62547;PMS7003;48602;45.192;5.722;2023-01-16T01:15:07;51.33;43.33;30.33
62547;PMS7003;48602;45.192;5.722;2023-01-16T01:17:32;40.00;38.33;25.67
62547;PMS7003;48602;45.192;5.722;2023-01-16T01:19:58;48.33;41.00;28.00
62547;PMS7003;48602;45.192;5.722;2023-01-16T01:22:23;49.33;38.33;27.33
62547;PMS7003;48602;45.192;5.722;2023-01-16T01:24:48;44.00;38.00;27.67
62547;PMS7003;48602;45.192;5.722;2023-01-16T01:27:15;49.67;43.00;29.67
62547;PMS7003;48602;45.192;5.722;2023-01-16T01:29:41;43.67;38.67;24.00
62547;PMS7003;48602;45.192;5.722;2023-01-16T01:32:07;45.67;40.00;26.67
62547;PMS7003;48602;45.192;5.722;2023-01-16T01:34:33;57.33;45.00;29.67
62547;PMS7003;48602;45.192;5.722;2023-01-16T01:37:00;64.67;45.00;30.33
62547;PMS7003;48602;45.192;5.722;2023-01-16T01:39:26;58.33;42.67;29.67
62547;PMS7003;48602;45.192;5.722;2023-01-16T01:41:52;57.00;44.67;29.33
62547;PMS7003;48602;45.192;5.722;2023-01-16T01:44:48;47.33;41.33;28.67
62547;PMS7003;48602;45.192;5.722;2023-01-16T01:47:16;41.67;39.00;27.67
62547;PMS7003;48602;45.192;5.722;2023-01-16T01:49:45;47.33;41.00;28.67
62547;PMS7003;48602;45.192;5.722;2023-01-16T01:52:13;46.67;38.67;26.00
62547;PMS7003;48602;45.192;5.722;2023-01-16T01:54:40;43.67;38.67;27.00
62547;PMS7003;48602;45.192;5.722;2023-01-16T01:57:10;50.00;40.67;26.00
62547;PMS7003;48602;45.192;5.722;2023-01-16T01:59:42;48.33;39.67;27.00
62547;PMS7003;48602;45.192;5.722;2023-01-16T02:02:12;44.67;36.67;26.67
62547;PMS7003;48602;45.192;5.722;2023-01-16T02:04:44;42.00;34.67;25.67
62547;PMS7003;48602;45.192;5.722;2023-01-16T02:07:12;45.00;39.00;28.00
62547;PMS7003;48602;45.192;5.722;2023-01-16T02:09:40;57.67;42.00;27.67
62547;PMS7003;48602;45.192;5.722;2023-01-16T02:12:07;55.00;43.33;29.00
62547;PMS7003;48602;45.192;5.722;2023-01-16T02:14:39;46.00;38.67;26.00
62547;PMS7003;48602;45.192;5.722;2023-01-16T02:28:26;39.00;35.67;26.00
62547;PMS7003;48602;45.192;5.722;2023-01-16T02:31:06;50.33;37.00;25.33
62547;PMS7003;48602;45.192;5.722;2023-01-16T02:40:01;38.33;32.00;23.00
62547;PMS7003;48602;45.192;5.722;2023-01-16T02:56:48;49.67;38.33;26.33
62547;PMS7003;48602;45.192;5.722;2023-01-16T02:59:22;40.33;37.00;24.67
62547;PMS7003;48602;45.192;5.722;2023-01-16T03:01:52;50.67;41.00;26.67
62547;PMS7003;48602;45.192;5.722;2023-01-16T03:15:47;44.33;40.33;25.67
62547;PMS7003;48602;45.192;5.722;2023-01-16T03:23:40;52.00;43.33;28.67
62547;PMS7003;48602;45.192;5.722;2023-01-16T03:26:13;56.33;46.33;29.33
62547;PMS7003;48602;45.192;5.722;2023-01-16T03:31:22;45.67;35.33;25.67
62547;PMS7003;48602;45.192;5.722;2023-01-16T03:33:52;40.33;38.33;25.33
62547;PMS7003;48602;45.192;5.722;2023-01-16T03:37:06;34.00;31.67;23.00
62547;PMS7003;48602;45.192;5.722;2023-01-16T03:39:45;48.33;38.33;27.00
62547;PMS7003;48602;45.192;5.722;2023-01-16T03:42:17;38.33;29.67;21.00
62547;PMS7003;48602;45.192;5.722;2023-01-16T03:44:53;32.67;29.33;20.33
62547;PMS7003;48602;45.192;5.722;2023-01-16T03:47:26;27.33;23.67;15.33
62547;PMS7003;48602;45.192;5.722;2023-01-16T03:49:59;27.00;23.00;16.33
62547;PMS7003;48602;45.192;5.722;2023-01-16T03:52:34;42.67;30.00;22.33
62547;PMS7003;48602;45.192;5.722;2023-01-16T03:55:06;40.00;30.00;22.67
62547;PMS7003;48602;45.192;5.722;2023-01-16T03:57:50;32.33;27.33;22.00
62547;PMS7003;48602;45.192;5.722;2023-01-16T04:00:19;22.00;18.00;15.33
62547;PMS7003;48602;45.192;5.722;2023-01-16T04:02:48;26.33;22.33;15.33
62547;PMS7003;48602;45.192;5.722;2023-01-16T04:05:24;29.67;25.67;18.33
62547;PMS7003;48602;45.192;5.722;2023-01-16T04:07:56;30.00;21.00;15.00
62547;PMS7003;48602;45.192;5.722;2023-01-16T04:10:30;30.00;29.33;19.67
62547;PMS7003;48602;45.192;5.722;2023-01-16T04:13:00;35.67;27.33;17.33
62547;PMS7003;48602;45.192;5.722;2023-01-16T04:15:32;35.67;29.33;19.67
62547;PMS7003;48602;45.192;5.722;2023-01-16T04:18:00;31.67;27.33;19.33
62547;PMS7003;48602;45.192;5.722;2023-01-16T04:20:27;32.00;29.33;20.67
62547;PMS7003;48602;45.192;5.722;2023-01-16T04:22:54;36.67;30.33;22.33
62547;PMS7003;48602;45.192;5.722;2023-01-16T04:25:20;33.00;24.67;16.67
62547;PMS7003;48602;45.192;5.722;2023-01-16T04:27:46;23.33;20.00;16.67
62547;PMS7003;48602;45.192;5.722;2023-01-16T04:30:11;29.33;23.33;17.00
62547;PMS7003;48602;45.192;5.722;2023-01-16T04:32:37;32.67;28.67;19.67
62547;PMS7003;48602;45.192;5.722;2023-01-16T04:35:03;27.33;24.67;17.67
62547;PMS7003;48602;45.192;5.722;2023-01-16T04:37:29;41.00;34.00;24.67
62547;PMS7003;48602;45.192;5.722;2023-01-16T04:39:55;34.67;31.00;19.33
62547;PMS7003;48602;45.192;5.722;2023-01-16T04:42:21;27.00;24.33;20.00
62547;PMS7003;48602;45.192;5.722;2023-01-16T04:44:46;28.33;26.67;19.67
62547;PMS7003;48602;45.192;5.722;2023-01-16T04:47:12;25.67;25.00;17.67
62547;PMS7003;48602;45.192;5.722;2023-01-16T04:49:38;27.00;22.67;15.33
62547;PMS7003;48602;45.192;5.722;2023-01-16T04:52:13;25.33;21.67;15.33
62547;PMS7003;48602;45.192;5.722;2023-01-16T04:54:39;20.33;19.00;16.33
62547;PMS7003;48602;45.192;5.722;2023-01-16T04:57:04;30.33;22.33;16.67
62547;PMS7003;48602;45.192;5.722;2023-01-16T04:59:30;34.33;25.00;18.33
62547;PMS7003;48602;45.192;5.722;2023-01-16T05:01:56;40.33;31.33;19.33
62547;PMS7003;48602;45.192;5.722;2023-01-16T05:04:21;16.33;9.33;6.00
62547;PMS7003;48602;45.192;5.722;2023-01-16T05:06:47;23.00;21.33;16.00
62547;PMS7003;48602;45.192;5.722;2023-01-16T05:09:12;31.00;26.00;19.67
62547;PMS7003;48602;45.192;5.722;2023-01-16T05:11:38;40.33;30.00;21.00
62547;PMS7003;48602;45.192;5.722;2023-01-16T05:14:04;30.00;27.33;20.00
62547;PMS7003;48602;45.192;5.722;2023-01-16T05:16:33;31.33;24.00;16.33
62547;PMS7003;48602;45.192;5.722;2023-01-16T05:19:01;25.67;21.33;17.00
62547;PMS7003;48602;45.192;5.722;2023-01-16T05:21:27;26.67;23.33;17.33
62547;PMS7003;48602;45.192;5.722;2023-01-16T05:23:52;19.00;17.00;10.00
62547;PMS7003;48602;45.192;5.722;2023-01-16T05:26:18;18.33;16.33;13.00
62547;PMS7003;48602;45.192;5.722;2023-01-16T05:28:44;28.50;21.00;15.00
62547;PMS7003;48602;45.192;5.722;2023-01-16T05:31:09;23.67;21.67;14.67
62547;PMS7003;48602;45.192;5.722;2023-01-16T05:33:35;20.67;19.33;16.00
62547;PMS7003;48602;45.192;5.722;2023-01-16T05:36:00;18.33;16.67;11.67
62547;PMS7003;48602;45.192;5.722;2023-01-16T05:38:26;25.67;20.00;14.00
62547;PMS7003;48602;45.192;5.722;2023-01-16T05:40:51;13.67;13.00;11.33
62547;PMS7003;48602;45.192;5.722;2023-01-16T05:43:17;17.67;14.33;11.33
62547;PMS7003;48602;45.192;5.722;2023-01-16T05:45:42;12.33;9.00;8.00
62547;PMS7003;48602;45.192;5.722;2023-01-16T05:48:07;15.33;11.33;8.67
62547;PMS7003;48602;45.192;5.722;2023-01-16T05:50:33;16.33;14.00;11.33
62547;PMS7003;48602;45.192;5.722;2023-01-16T05:52:58;17.33;16.33;12.00
62547;PMS7003;48602;45.192;5.722;2023-01-16T05:55:24;15.67;12.67;9.67
62547;PMS7003;48602;45.192;5.722;2023-01-16T05:57:50;13.33;13.33;10.00
62547;PMS7003;48602;45.192;5.722;2023-01-16T06:00:15;11.67;11.67;8.00
62547;PMS7003;48602;45.192;5.722;2023-01-16T06:02:42;15.33;11.33;9.33
62547;PMS7003;48602;45.192;5.722;2023-01-16T06:05:07;18.00;15.00;11.67
62547;PMS7003;48602;45.192;5.722;2023-01-16T06:07:33;14.33;13.33;11.33
62547;PMS7003;48602;45.192;5.722;2023-01-16T06:09:59;14.00;13.00;10.00
62547;PMS7003;48602;45.192;5.722;2023-01-16T06:12:24;20.67;18.00;13.00
62547;PMS7003;48602;45.192;5.722;2023-01-16T06:14:50;17.67;14.33;11.33
62547;PMS7003;48602;45.192;5.722;2023-01-16T06:17:15;13.33;13.33;10.00
62547;PMS7003;48602;45.192;5.722;2023-01-16T06:19:42;16.67;15.67;13.00
62547;PMS7003;48602;45.192;5.722;2023-01-16T06:22:08;16.00;16.00;13.00
62547;PMS7003;48602;45.192;5.722;2023-01-16T06:24:34;14.67;13.00;10.00
62547;PMS7003;48602;45.192;5.722;2023-01-16T06:26:59;14.00;13.00;11.33
62547;PMS7003;48602;45.192;5.722;2023-01-16T06:29:24;17.00;13.67;11.33
62547;PMS7003;48602;45.192;5.722;2023-01-16T06:31:50;15.33;13.33;10.00
62547;PMS7003;48602;45.192;5.722;2023-01-16T06:34:16;9.67;9.33;7.00
62547;PMS7003;48602;45.192;5.722;2023-01-16T06:36:41;16.67;16.00;12.33
62547;PMS7003;48602;45.192;5.722;2023-01-16T06:39:08;15.33;13.67;9.33
62547;PMS7003;48602;45.192;5.722;2023-01-16T06:41:35;15.00;12.67;9.00
62547;PMS7003;48602;45.192;5.722;2023-01-16T06:44:01;14.33;10.00;7.00
62547;PMS7003;48602;45.192;5.722;2023-01-16T06:46:26;7.00;7.00;5.67
62547;PMS7003;48602;45.192;5.722;2023-01-16T06:48:52;12.67;12.00;10.00
62547;PMS7003;48602;45.192;5.722;2023-01-16T06:51:17;14.00;13.33;9.33
62547;PMS7003;48602;45.192;5.722;2023-01-16T06:53:43;14.00;13.33;10.33
62547;PMS7003;48602;45.192;5.722;2023-01-16T06:56:08;12.33;10.33;9.00
62547;PMS7003;48602;45.192;5.722;2023-01-16T06:58:33;16.33;13.33;9.67
62547;PMS7003;48602;45.192;5.722;2023-01-16T07:00:59;13.00;13.00;10.00
62547;PMS7003;48602;45.192;5.722;2023-01-16T07:03:25;18.33;15.00;13.00
62547;PMS7003;48602;45.192;5.722;2023-01-16T07:05:50;19.00;14.00;11.00
62547;PMS7003;48602;45.192;5.722;2023-01-16T07:08:16;15.00;14.67;10.67
62547;PMS7003;48602;45.192;5.722;2023-01-16T07:10:41;18.00;16.00;13.67
62547;PMS7003;48602;45.192;5.722;2023-01-16T07:13:07;19.33;15.33;12.00
62547;PMS7003;48602;45.192;5.722;2023-01-16T07:15:35;12.67;12.67;9.33
62547;PMS7003;48602;45.192;5.722;2023-01-16T07:18:20;14.00;13.33;11.00
62547;PMS7003;48602;45.192;5.722;2023-01-16T07:21:04;14.33;14.33;11.33
62547;PMS7003;48602;45.192;5.722;2023-01-16T07:23:55;11.00;10.00;7.00
62547;PMS7003;48602;45.192;5.722;2023-01-16T07:26:25;18.33;14.67;10.67
62547;PMS7003;48602;45.192;5.722;2023-01-16T07:28:52;17.33;12.00;10.33
62547;PMS7003;48602;45.192;5.722;2023-01-16T07:31:20;22.33;14.00;11.33
62547;PMS7003;48602;45.192;5.722;2023-01-16T07:33:46;11.00;10.33;8.00
62547;PMS7003;48602;45.192;5.722;2023-01-16T07:36:12;16.67;12.33;10.00
62547;PMS7003;48602;45.192;5.722;2023-01-16T07:38:37;15.00;12.33;11.00
62547;PMS7003;48602;45.192;5.722;2023-01-16T07:41:03;12.33;12.33;10.00
62547;PMS7003;48602;45.192;5.722;2023-01-16T07:43:28;18.33;14.67;11.67
62547;PMS7003;48602;45.192;5.722;2023-01-16T07:45:54;8.00;5.00;2.67
62547;PMS7003;48602;45.192;5.722;2023-01-16T07:48:20;13.67;12.67;11.00
62547;PMS7003;48602;45.192;5.722;2023-01-16T07:50:50;11.67;11.00;9.33
62547;PMS7003;48602;45.192;5.722;2023-01-16T07:53:16;3.00;2.00;2.00
62547;PMS7003;48602;45.192;5.722;2023-01-16T07:55:46;6.00;5.00;5.00
62547;PMS7003;48602;45.192;5.722;2023-01-16T07:58:11;10.00;6.33;6.00
62547;PMS7003;48602;45.192;5.722;2023-01-16T08:00:37;5.00;3.00;2.00
62547;PMS7003;48602;45.192;5.722;2023-01-16T08:03:02;4.33;2.67;2.00
62547;PMS7003;48602;45.192;5.722;2023-01-16T08:05:28;5.33;3.00;3.00
62547;PMS7003;48602;45.192;5.722;2023-01-16T08:07:53;1.75;1.75;1.50
62547;PMS7003;48602;45.192;5.722;2023-01-16T08:10:20;0.25;0.00;0.00
62547;PMS7003;48602;45.192;5.722;2023-01-16T08:12:45;1.00;0.00;0.00
62547;PMS7003;48602;45.192;5.722;2023-01-16T08:15:10;0.00;0.00;0.00
62547;PMS7003;48602;45.192;5.722;2023-01-16T08:17:37;0.00;0.00;0.00
62547;PMS7003;48602;45.192;5.722;2023-01-16T08:20:04;0.00;0.00;0.00
62547;PMS7003;48602;45.192;5.722;2023-01-16T08:22:30;0.00;0.00;0.00
62547;PMS7003;48602;45.192;5.722;2023-01-16T08:24:55;0.00;0.00;0.00
62547;PMS7003;48602;45.192;5.722;2023-01-16T08:27:21;0.00;0.00;0.00
62547;PMS7003;48602;45.192;5.722;2023-01-16T08:29:46;0.00;0.00;0.00
62547;PMS7003;48602;45.192;5.722;2023-01-16T08:32:12;0.00;0.00;0.00
62547;PMS7003;48602;45.192;5.722;2023-01-16T08:34:37;0.00;0.00;0.00
62547;PMS7003;48602;45.192;5.722;2023-01-16T08:37:03;0.00;0.00;0.00
62547;PMS7003;48602;45.192;5.722;2023-01-16T08:39:29;0.00;0.00;0.00
62547;PMS7003;48602;45.192;5.722;2023-01-16T08:41:55;0.00;0.00;0.00
62547;PMS7003;48602;45.192;5.722;2023-01-16T08:44:42;0.00;0.00;0.00
62547;PMS7003;48602;45.192;5.722;2023-01-16T08:47:25;0.50;0.00;0.00
62547;PMS7003;48602;45.192;5.722;2023-01-16T08:50:11;0.00;0.00;0.00
62547;PMS7003;48602;45.192;5.722;2023-01-16T08:52:57;0.00;0.00;0.00
62547;PMS7003;48602;45.192;5.722;2023-01-16T08:55:23;0.00;0.00;0.00
62547;PMS7003;48602;45.192;5.722;2023-01-16T08:57:48;0.00;0.00;0.00
62547;PMS7003;48602;45.192;5.722;2023-01-16T09:00:13;0.00;0.00;0.00
62547;PMS7003;48602;45.192;5.722;2023-01-16T09:02:39;0.00;0.00;0.00
62547;PMS7003;48602;45.192;5.722;2023-01-16T09:05:05;0.00;0.00;0.00
62547;PMS7003;48602;45.192;5.722;2023-01-16T09:07:30;0.00;0.00;0.00
62547;PMS7003;48602;45.192;5.722;2023-01-16T09:10:03;0.00;0.00;0.00
62547;PMS7003;48602;45.192;5.722;2023-01-16T09:12:28;0.00;0.00;0.00
62547;PMS7003;48602;45.192;5.722;2023-01-16T09:15:12;6.25;5.25;4.00
62547;PMS7003;48602;45.192;5.722;2023-01-16T09:17:38;0.00;0.00;0.00
62547;PMS7003;48602;45.192;5.722;2023-01-16T09:20:03;0.25;0.25;0.25
62547;PMS7003;48602;45.192;5.722;2023-01-16T09:22:30;0.00;0.00;0.00
62547;PMS7003;48602;45.192;5.722;2023-01-16T09:24:55;2.00;0.00;0.00
62547;PMS7003;48602;45.192;5.722;2023-01-16T09:27:21;0.00;0.00;0.00
62547;PMS7003;48602;45.192;5.722;2023-01-16T09:29:49;0.00;0.00;0.00
62547;PMS7003;48602;45.192;5.722;2023-01-16T09:32:14;0.00;0.00;0.00
62547;PMS7003;48602;45.192;5.722;2023-01-16T09:34:41;0.00;0.00;0.00
62547;PMS7003;48602;45.192;5.722;2023-01-16T09:37:07;0.00;0.00;0.00
62547;PMS7003;48602;45.192;5.722;2023-01-16T09:39:34;0.00;0.00;0.00
62547;PMS7003;48602;45.192;5.722;2023-01-16T09:45:13;2.00;0.00;0.00
62547;PMS7003;48602;45.192;5.722;2023-01-16T09:47:43;1.50;0.75;0.75
62547;PMS7003;48602;45.192;5.722;2023-01-16T09:50:29;0.60;0.00;0.00
62547;PMS7003;48602;45.192;5.722;2023-01-16T09:52:55;0.25;0.00;0.00
62547;PMS7003;48602;45.192;5.722;2023-01-16T09:55:42;0.00;0.00;0.00
62547;PMS7003;48602;45.192;5.722;2023-01-16T09:58:32;0.50;0.50;0.00
62547;PMS7003;48602;45.192;5.722;2023-01-16T10:01:02;0.00;0.00;0.00
62547;PMS7003;48602;45.192;5.722;2023-01-16T10:03:33;48.67;40.33;26.00
62547;PMS7003;48602;45.192;5.722;2023-01-16T10:25:29;0.00;0.00;0.00
62547;PMS7003;48602;45.192;5.722;2023-01-16T10:28:26;0.50;0.50;0.00
62547;PMS7003;48602;45.192;5.722;2023-01-16T10:31:03;0.50;0.00;0.00
62547;PMS7003;48602;45.192;5.722;2023-01-16T10:33:38;1.20;0.00;0.00
62547;PMS7003;48602;45.192;5.722;2023-01-16T10:36:10;0.00;0.00;0.00
62547;PMS7003;48602;45.192;5.722;2023-01-16T10:38:50;0.00;0.00;0.00
62547;PMS7003;48602;45.192;5.722;2023-01-16T10:47:09;0.00;0.00;0.00
62547;PMS7003;48602;45.192;5.722;2023-01-16T10:49:55;0.00;0.00;0.00
62547;PMS7003;48602;45.192;5.722;2023-01-16T10:52:21;1.00;0.00;0.00
62547;PMS7003;48602;45.192;5.722;2023-01-16T10:54:47;2.20;0.00;0.00
62547;PMS7003;48602;45.192;5.722;2023-01-16T10:57:17;2.00;0.00;0.00
62547;PMS7003;48602;45.192;5.722;2023-01-16T10:59:46;0.00;0.00;0.00
62547;PMS7003;48602;45.192;5.722;2023-01-16T11:02:16;0.00;0.00;0.00
62547;PMS7003;48602;45.192;5.722;2023-01-16T11:04:52;0.00;0.00;0.00
62547;PMS7003;48602;45.192;5.722;2023-01-16T11:07:19;0.00;0.00;0.00
62547;PMS7003;48602;45.192;5.722;2023-01-16T11:09:45;1.00;0.00;0.00
62547;PMS7003;48602;45.192;5.722;2023-01-16T11:12:23;0.00;0.00;0.00
62547;PMS7003;48602;45.192;5.722;2023-01-16T11:15:28;0.00;0.00;0.00
62547;PMS7003;48602;45.192;5.722;2023-01-16T11:18:32;0.00;0.00;0.00
62547;PMS7003;48602;45.192;5.722;2023-01-16T11:21:00;0.00;0.00;0.00
62547;PMS7003;48602;45.192;5.722;2023-01-16T11:23:42;2.00;0.50;0.50
62547;PMS7003;48602;45.192;5.722;2023-01-16T11:26:09;0.00;0.00;0.00
62547;PMS7003;48602;45.192;5.722;2023-01-16T11:28:36;0.00;0.00;0.00
62547;PMS7003;48602;45.192;5.722;2023-01-16T11:31:05;0.00;0.00;0.00
62547;PMS7003;48602;45.192;5.722;2023-01-16T11:33:41;0.00;0.00;0.00
62547;PMS7003;48602;45.192;5.722;2023-01-16T11:36:10;1.00;1.00;0.00
62547;PMS7003;48602;45.192;5.722;2023-01-16T11:38:42;0.00;0.00;0.00
62547;PMS7003;48602;45.192;5.722;2023-01-16T11:41:10;0.00;0.00;0.00
62547;PMS7003;48602;45.192;5.722;2023-01-16T11:43:36;1.75;1.25;1.00
62547;PMS7003;48602;45.192;5.722;2023-01-16T11:46:40;0.20;0.00;0.00
62547;PMS7003;48602;45.192;5.722;2023-01-16T11:49:16;0.00;0.00;0.00
62547;PMS7003;48602;45.192;5.722;2023-01-16T11:51:43;0.00;0.00;0.00
62547;PMS7003;48602;45.192;5.722;2023-01-16T11:54:16;0.00;0.00;0.00
62547;PMS7003;48602;45.192;5.722;2023-01-16T12:13:47;2.00;0.00;0.00
62547;PMS7003;48602;45.192;5.722;2023-01-16T12:38:14;0.00;0.00;0.00
62547;PMS7003;48602;45.192;5.722;2023-01-16T12:40:56;4.00;3.25;1.75
62547;PMS7003;48602;45.192;5.722;2023-01-16T12:49:44;0.00;0.00;0.00
62547;PMS7003;48602;45.192;5.722;2023-01-16T13:00:02;0.00;0.00;0.00
62547;PMS7003;48602;45.192;5.722;2023-01-16T13:02:45;0.00;0.00;0.00
62547;PMS7003;48602;45.192;5.722;2023-01-16T13:05:23;0.00;0.00;0.00
62547;PMS7003;48602;45.192;5.722;2023-01-16T13:07:59;0.75;0.75;0.00
62547;PMS7003;48602;45.192;5.722;2023-01-16T13:10:32;0.20;0.00;0.00
62547;PMS7003;48602;45.192;5.722;2023-01-16T13:13:20;2.20;2.20;2.00
62547;PMS7003;48602;45.192;5.722;2023-01-16T13:21:57;0.00;0.00;0.00
62547;PMS7003;48602;45.192;5.722;2023-01-16T13:24:33;0.00;0.00;0.00
62547;PMS7003;48602;45.192;5.722;2023-01-16T13:27:09;0.00;0.00;0.00
62547;PMS7003;48602;45.192;5.722;2023-01-16T13:29:44;0.00;0.00;0.00
62547;PMS7003;48602;45.192;5.722;2023-01-16T13:32:27;0.00;0.00;0.00
62547;PMS7003;48602;45.192;5.722;2023-01-16T13:35:00;0.00;0.00;0.00
62547;PMS7003;48602;45.192;5.722;2023-01-16T13:40:34;1.00;0.00;0.00
62547;PMS7003;48602;45.192;5.722;2023-01-16T13:43:05;0.00;0.00;0.00
62547;PMS7003;48602;45.192;5.722;2023-01-16T13:45:54;1.80;0.00;0.00
62547;PMS7003;48602;45.192;5.722;2023-01-16T13:48:28;0.25;0.00;0.00
62547;PMS7003;48602;45.192;5.722;2023-01-16T13:50:58;0.00;0.00;0.00
62547;PMS7003;48602;45.192;5.722;2023-01-16T13:53:25;0.00;0.00;0.00
62547;PMS7003;48602;45.192;5.722;2023-01-16T13:56:02;0.00;0.00;0.00
62547;PMS7003;48602;45.192;5.722;2023-01-16T13:58:31;0.00;0.00;0.00
62547;PMS7003;48602;45.192;5.722;2023-01-16T14:00:59;0.00;0.00;0.00
62547;PMS7003;48602;45.192;5.722;2023-01-16T14:03:27;0.00;0.00;0.00
62547;PMS7003;48602;45.192;5.722;2023-01-16T14:14:46;0.50;0.00;0.00
62547;PMS7003;48602;45.192;5.722;2023-01-16T14:23:28;0.00;0.00;0.00
62547;PMS7003;48602;45.192;5.722;2023-01-16T14:26:57;1.00;0.00;0.00
62547;PMS7003;48602;45.192;5.722;2023-01-16T14:31:50;0.00;0.00;0.00
62547;PMS7003;48602;45.192;5.722;2023-01-16T14:34:33;0.00;0.00;0.00
62547;PMS7003;48602;45.192;5.722;2023-01-16T14:37:19;0.20;0.00;0.00
62547;PMS7003;48602;45.192;5.722;2023-01-16T14:40:00;1.00;1.00;1.00
62547;PMS7003;48602;45.192;5.722;2023-01-16T14:42:29;0.25;0.00;0.00
62547;PMS7003;48602;45.192;5.722;2023-01-16T14:45:27;0.00;0.00;0.00
62547;PMS7003;48602;45.192;5.722;2023-01-16T14:48:29;3.75;1.00;1.00
62547;PMS7003;48602;45.192;5.722;2023-01-16T14:51:31;1.00;1.00;1.00
62547;PMS7003;48602;45.192;5.722;2023-01-16T14:57:14;0.00;0.00;0.00
62547;PMS7003;48602;45.192;5.722;2023-01-16T14:59:44;0.00;0.00;0.00
62547;PMS7003;48602;45.192;5.722;2023-01-16T15:02:22;0.00;0.00;0.00
62547;PMS7003;48602;45.192;5.722;2023-01-16T15:16:20;1.50;0.25;0.00
62547;PMS7003;48602;45.192;5.722;2023-01-16T15:19:27;1.50;1.50;1.25
62547;PMS7003;48602;45.192;5.722;2023-01-16T15:22:19;4.25;4.25;4.00
62547;PMS7003;48602;45.192;5.722;2023-01-16T15:24:57;3.00;3.00;2.75
62547;PMS7003;48602;45.192;5.722;2023-01-16T15:27:31;0.00;0.00;0.00
62547;PMS7003;48602;45.192;5.722;2023-01-16T15:30:07;5.00;4.50;3.75
62547;PMS7003;48602;45.192;5.722;2023-01-16T15:32:56;3.50;3.00;2.50
62547;PMS7003;48602;45.192;5.722;2023-01-16T15:35:43;5.75;5.75;5.00
62547;PMS7003;48602;45.192;5.722;2023-01-16T15:38:10;6.00;4.00;3.25
62547;PMS7003;48602;45.192;5.722;2023-01-16T15:40:46;1.25;1.25;1.00
62547;PMS7003;48602;45.192;5.722;2023-01-16T15:43:15;2.75;1.75;1.50
62547;PMS7003;48602;45.192;5.722;2023-01-16T15:46:03;2.00;1.80;1.60
62547;PMS7003;48602;45.192;5.722;2023-01-16T15:51:34;1.25;1.00;1.00
62547;PMS7003;48602;45.192;5.722;2023-01-16T15:54:00;4.00;2.75;2.00
62547;PMS7003;48602;45.192;5.722;2023-01-16T15:59:00;1.75;1.75;1.75
62547;PMS7003;48602;45.192;5.722;2023-01-16T16:01:33;1.00;1.00;1.00
62547;PMS7003;48602;45.192;5.722;2023-01-16T16:03:59;1.00;1.00;1.00
62547;PMS7003;48602;45.192;5.722;2023-01-16T16:06:47;0.80;0.80;0.80
62547;PMS7003;48602;45.192;5.722;2023-01-16T16:09:20;0.75;0.75;0.25
62547;PMS7003;48602;45.192;5.722;2023-01-16T16:11:49;2.00;2.00;2.00
62547;PMS7003;48602;45.192;5.722;2023-01-16T16:14:29;1.00;1.00;1.00
62547;PMS7003;48602;45.192;5.722;2023-01-16T16:23:00;1.75;0.75;0.75
62547;PMS7003;48602;45.192;5.722;2023-01-16T16:30:45;1.25;1.25;1.00
62547;PMS7003;48602;45.192;5.722;2023-01-16T16:33:19;4.50;4.50;4.00
62547;PMS7003;48602;45.192;5.722;2023-01-16T16:35:54;1.00;1.00;1.00
62547;PMS7003;48602;45.192;5.722;2023-01-16T16:38:30;2.00;1.00;1.00
62547;PMS7003;48602;45.192;5.722;2023-01-16T16:43:41;3.50;2.50;2.00
62547;PMS7003;48602;45.192;5.722;2023-01-16T16:48:48;2.00;1.75;1.00
62547;PMS7003;48602;45.192;5.722;2023-01-16T16:53:48;2.00;1.00;1.00
62547;PMS7003;48602;45.192;5.722;2023-01-16T16:56:19;2.00;2.00;1.50
62547;PMS7003;48602;45.192;5.722;2023-01-16T16:58:56;1.00;1.00;0.00
62547;PMS7003;48602;45.192;5.722;2023-01-16T17:01:22;2.00;2.00;2.00
62547;PMS7003;48602;45.192;5.722;2023-01-16T17:03:51;2.50;2.25;2.00
62547;PMS7003;48602;45.192;5.722;2023-01-16T17:06:21;1.00;1.00;1.00
62547;PMS7003;48602;45.192;5.722;2023-01-16T17:08:48;1.25;1.25;1.25
62547;PMS7003;48602;45.192;5.722;2023-01-16T17:11:14;1.25;1.25;1.00
62547;PMS7003;48602;45.192;5.722;2023-01-16T17:13:40;2.75;2.75;2.50
62547;PMS7003;48602;45.192;5.722;2023-01-16T17:16:14;2.00;1.50;1.00
62547;PMS7003;48602;45.192;5.722;2023-01-16T17:18:48;2.00;2.00;2.00
62547;PMS7003;48602;45.192;5.722;2023-01-16T17:21:18;3.50;3.00;2.00
62547;PMS7003;48602;45.192;5.722;2023-01-16T17:23:44;2.00;2.00;1.75
62547;PMS7003;48602;45.192;5.722;2023-01-16T17:26:10;1.00;1.00;1.00
62547;PMS7003;48602;45.192;5.722;2023-01-16T17:28:37;0.75;0.75;0.75
62547;PMS7003;48602;45.192;5.722;2023-01-16T17:31:04;1.50;1.25;1.00
62547;PMS7003;48602;45.192;5.722;2023-01-16T17:33:30;2.00;2.00;1.00
62547;PMS7003;48602;45.192;5.722;2023-01-16T17:35:56;17.33;11.67;8.33
62547;PMS7003;48602;45.192;5.722;2023-01-16T17:38:34;18.33;15.67;12.00
62547;PMS7003;48602;45.192;5.722;2023-01-16T17:41:04;15.67;12.67;10.00
62547;PMS7003;48602;45.192;5.722;2023-01-16T17:43:33;11.75;11.00;9.50